Time,TemperatureF,DewpointF,PressureIn,WindDirection,WindDirectionDegrees,WindSpeedMPH,WindSpeedGustMPH,Humidity,HourlyPrecipIn,Conditions,Clouds,dailyrainin,SolarRadiationWatts/m^2,SoftwareType,DateUTC
2013-02-24 00:01:00,28.0,21.0,-100.00,WSW,238,5.0,6.0,76,0.01,,,0.27,58.000000,,2013-02-24 00:01:00,
2013-02-24 00:22:00,28.0,22.0,-100.00,SSW,213,3.0,6.0,79,0.00,,,0.27,4.000000,,2013-02-24 00:22:00,
2013-02-24 00:32:00,28.0,22.0,-100.00,SSW,213,3.0,6.0,79,0.00,,,0.27,4.000000,,2013-02-24 00:32:00,
2013-02-24 00:42:00,28.0,22.0,-100.00,SSW,213,3.0,6.0,79,0.00,,,0.27,4.000000,,2013-02-24 00:42:00,
2013-02-24 00:52:00,28.0,22.0,-100.00,SSW,213,3.0,6.0,79,0.00,,,0.27,4.000000,,2013-02-24 00:52:00,
2013-02-24 01:01:00,28.0,22.0,-100.00,SSW,213,3.0,6.0,79,0.00,,,0.27,4.000000,,2013-02-24 01:01:00,
2013-02-24 01:32:00,27.0,23.0,-100.00,SW,233,5.0,6.0,85,0.00,,,0.27,0.000000,,2013-02-24 01:32:00,
2013-02-24 01:42:00,27.0,23.0,-100.00,SW,233,5.0,6.0,85,0.00,,,0.27,0.000000,,2013-02-24 01:42:00,
2013-02-24 01:52:00,27.0,23.0,-100.00,SW,233,5.0,6.0,85,0.00,,,0.27,0.000000,,2013-02-24 01:52:00,
2013-02-24 02:01:00,27.0,23.0,-100.00,SW,233,5.0,6.0,85,0.00,,,0.27,0.000000,,2013-02-24 02:01:00,
2013-02-24 02:32:00,27.0,23.0,-100.00,SW,232,5.0,6.0,86,0.00,,,0.27,0.000000,,2013-02-24 02:32:00,
2013-02-24 02:42:00,27.0,23.0,-100.00,SW,232,5.0,6.0,86,0.00,,,0.27,0.000000,,2013-02-24 02:42:00,
2013-02-24 02:52:00,27.0,23.0,-100.00,SW,232,5.0,6.0,86,0.00,,,0.27,0.000000,,2013-02-24 02:52:00,
2013-02-24 03:02:00,27.0,23.0,-100.00,SW,232,5.0,6.0,86,0.00,,,0.27,0.000000,,2013-02-24 03:02:00,
2013-02-24 03:32:00,27.0,24.0,-100.00,SW,236,2.0,6.0,89,0.00,,,0.27,0.000000,,2013-02-24 03:32:00,
2013-02-24 03:42:00,27.0,24.0,-100.00,SW,236,2.0,6.0,89,0.00,,,0.27,0.000000,,2013-02-24 03:42:00,
2013-02-24 03:52:00,27.0,24.0,-100.00,SW,236,2.0,6.0,89,0.00,,,0.27,0.000000,,2013-02-24 03:52:00,
2013-02-24 04:01:00,27.0,24.0,-100.00,SW,236,2.0,6.0,89,0.00,,,0.27,0.000000,,2013-02-24 04:01:00,
2013-02-24 04:32:00,26.0,24.0,-100.00,ENE,62,1.0,4.0,92,0.00,,,0.27,0.000000,,2013-02-24 04:32:00,
2013-02-24 04:42:00,26.0,24.0,-100.00,ENE,62,1.0,4.0,92,0.00,,,0.27,0.000000,,2013-02-24 04:42:00,
2013-02-24 04:52:00,26.0,24.0,-100.00,ENE,62,1.0,4.0,92,0.00,,,0.27,0.000000,,2013-02-24 04:52:00,
2013-02-24 05:01:00,26.0,24.0,-100.00,ENE,62,1.0,4.0,92,0.00,,,0.27,0.000000,,2013-02-24 05:01:00,
2013-02-24 05:22:00,28.0,26.0,-100.00,NNW,343,3.0,5.0,93,0.00,,,0.27,0.000000,,2013-02-24 05:22:00,
2013-02-24 05:32:00,28.0,26.0,-100.00,NNW,343,3.0,5.0,93,0.00,,,0.27,0.000000,,2013-02-24 05:32:00,
2013-02-24 05:42:00,28.0,26.0,-100.00,NNW,343,3.0,5.0,93,0.00,,,0.27,0.000000,,2013-02-24 05:42:00,
2013-02-24 05:52:00,28.0,26.0,-100.00,NNW,343,3.0,5.0,93,0.00,,,0.27,0.000000,,2013-02-24 05:52:00,
2013-02-24 06:01:00,28.0,26.0,-100.00,NNW,343,3.0,5.0,93,0.00,,,0.27,0.000000,,2013-02-24 06:01:00,
2013-02-24 06:21:00,27.0,25.0,-100.00,NNW,334,3.0,6.0,93,0.00,,,0.27,0.000000,,2013-02-24 06:21:00,
2013-02-24 06:32:00,27.0,25.0,-100.00,NNW,334,3.0,6.0,93,0.00,,,0.27,0.000000,,2013-02-24 06:32:00,
2013-02-24 06:42:00,27.0,25.0,-100.00,NNW,334,3.0,6.0,93,0.00,,,0.27,0.000000,,2013-02-24 06:42:00,
2013-02-24 06:52:00,27.0,25.0,-100.00,NNW,334,3.0,6.0,93,0.00,,,0.27,0.000000,,2013-02-24 06:52:00,
2013-02-24 07:01:00,27.0,25.0,-100.00,NNW,334,3.0,6.0,93,0.00,,,0.27,0.000000,,2013-02-24 07:01:00,
2013-02-24 07:32:00,28.0,25.0,-100.00,North,355,3.0,9.0,90,0.00,,,0.27,0.000000,,2013-02-24 07:32:00,
2013-02-24 07:42:00,28.0,25.0,-100.00,North,355,3.0,9.0,90,0.00,,,0.27,0.000000,,2013-02-24 07:42:00,
2013-02-24 07:52:00,28.0,25.0,-100.00,North,355,3.0,9.0,90,0.00,,,0.27,0.000000,,2013-02-24 07:52:00,
2013-02-24 08:01:00,28.0,25.0,-100.00,North,355,3.0,9.0,90,0.00,,,0.27,0.000000,,2013-02-24 08:01:00,
2013-02-24 08:22:00,28.0,25.0,-100.00,NNW,335,3.0,7.0,89,0.00,,,0.27,0.000000,,2013-02-24 08:22:00,
2013-02-24 08:32:00,28.0,25.0,-100.00,NNW,335,3.0,7.0,89,0.00,,,0.27,0.000000,,2013-02-24 08:32:00,
2013-02-24 08:42:00,28.0,25.0,-100.00,NNW,335,3.0,7.0,89,0.00,,,0.27,0.000000,,2013-02-24 08:42:00,
2013-02-24 08:54:00,28.0,25.0,-100.00,NNW,335,3.0,7.0,89,0.00,,,0.27,0.000000,,2013-02-24 08:54:00,
2013-02-24 09:01:00,28.0,25.0,-100.00,NNW,335,3.0,7.0,89,0.00,,,0.27,0.000000,,2013-02-24 09:01:00,
2013-02-24 09:22:00,28.0,25.0,-100.00,NW,316,3.0,6.0,89,0.00,,,0.27,0.000000,,2013-02-24 09:22:00,
2013-02-24 09:32:00,28.0,25.0,-100.00,NW,316,3.0,6.0,89,0.00,,,0.27,0.000000,,2013-02-24 09:32:00,
2013-02-24 09:42:00,28.0,25.0,-100.00,NW,316,3.0,6.0,89,0.00,,,0.27,0.000000,,2013-02-24 09:42:00,
2013-02-24 09:52:00,28.0,25.0,-100.00,NW,316,3.0,6.0,89,0.00,,,0.27,0.000000,,2013-02-24 09:52:00,
2013-02-24 10:01:00,28.0,25.0,-100.00,NW,316,3.0,6.0,89,0.00,,,0.27,0.000000,,2013-02-24 10:01:00,
2013-02-24 10:22:00,28.0,25.0,-100.00,NW,312,3.0,6.0,89,0.00,,,0.27,0.000000,,2013-02-24 10:22:00,
2013-02-24 10:32:00,28.0,25.0,-100.00,NW,312,3.0,6.0,89,0.00,,,0.27,0.000000,,2013-02-24 10:32:00,
2013-02-24 10:42:00,28.0,25.0,-100.00,NW,312,3.0,6.0,89,0.00,,,0.27,0.000000,,2013-02-24 10:42:00,
2013-02-24 10:52:00,28.0,25.0,-100.00,NW,312,3.0,6.0,89,0.00,,,0.27,0.000000,,2013-02-24 10:52:00,
2013-02-24 11:01:00,28.0,25.0,-100.00,NW,312,3.0,6.0,89,0.00,,,0.27,0.000000,,2013-02-24 11:01:00,
2013-02-24 11:32:00,27.0,24.0,-100.00,WNW,300,3.0,5.0,89,0.00,,,0.27,0.000000,,2013-02-24 11:32:00,
2013-02-24 11:42:00,27.0,24.0,-100.00,WNW,300,3.0,5.0,89,0.00,,,0.27,0.000000,,2013-02-24 11:42:00,
2013-02-24 11:53:00,27.0,24.0,-100.00,WNW,300,3.0,5.0,89,0.00,,,0.27,0.000000,,2013-02-24 11:53:00,
2013-02-24 12:01:00,27.0,24.0,-100.00,WNW,300,3.0,5.0,89,0.00,,,0.27,0.000000,,2013-02-24 12:01:00,
2013-02-24 12:03:00,27.0,24.0,-100.00,WNW,299,3.0,7.0,87,0.00,,,0.27,0.000000,,2013-02-24 12:03:00,
2013-02-24 12:22:00,27.0,24.0,-100.00,WNW,299,3.0,7.0,87,0.00,,,0.27,0.000000,,2013-02-24 12:22:00,
2013-02-24 12:33:00,27.0,24.0,-100.00,WNW,299,3.0,7.0,87,0.00,,,0.27,0.000000,,2013-02-24 12:33:00,
2013-02-24 12:46:00,27.0,24.0,-100.00,WNW,299,3.0,7.0,87,0.00,,,0.27,0.000000,,2013-02-24 12:46:00,
2013-02-24 12:56:00,27.0,24.0,-100.00,WNW,299,3.0,7.0,87,0.00,,,0.27,0.000000,,2013-02-24 12:56:00,
2013-02-24 13:03:00,27.0,24.0,-100.00,NW,316,2.0,6.0,87,0.00,,,0.27,2.000000,,2013-02-24 13:03:00,
2013-02-24 13:35:00,27.0,24.0,-100.00,NW,316,2.0,6.0,87,0.00,,,0.27,2.000000,,2013-02-24 13:35:00,
2013-02-24 13:45:00,27.0,24.0,-100.00,NW,316,2.0,6.0,87,0.00,,,0.27,2.000000,,2013-02-24 13:45:00,
2013-02-24 13:55:00,27.0,24.0,-100.00,NW,316,2.0,6.0,87,0.00,,,0.27,2.000000,,2013-02-24 13:55:00,
2013-02-24 14:25:00,28.0,24.0,-100.00,NW,308,3.0,6.0,86,0.00,,,0.27,23.000000,,2013-02-24 14:25:00,
2013-02-24 14:34:00,28.0,24.0,-100.00,NW,308,3.0,6.0,86,0.00,,,0.27,23.000000,,2013-02-24 14:34:00,
2013-02-24 14:45:00,28.0,24.0,-100.00,NW,308,3.0,6.0,86,0.00,,,0.27,23.000000,,2013-02-24 14:45:00,
2013-02-24 14:54:00,28.0,24.0,-100.00,NW,308,3.0,6.0,86,0.00,,,0.27,23.000000,,2013-02-24 14:54:00,
2013-02-24 15:02:00,28.0,24.0,-100.00,NW,308,3.0,6.0,86,0.00,,,0.27,23.000000,,2013-02-24 15:02:00,
2013-02-24 15:32:00,29.0,25.0,-100.00,NNW,337,4.0,6.0,84,0.00,,,0.27,62.000000,,2013-02-24 15:32:00,
2013-02-24 15:42:00,29.0,25.0,-100.00,NNW,337,4.0,6.0,84,0.00,,,0.27,62.000000,,2013-02-24 15:42:00,
2013-02-24 15:53:00,29.0,25.0,-100.00,NNW,337,4.0,6.0,84,0.00,,,0.27,62.000000,,2013-02-24 15:53:00,
2013-02-24 16:01:00,29.0,25.0,-100.00,NNW,337,4.0,6.0,84,0.00,,,0.27,62.000000,,2013-02-24 16:01:00,
2013-02-24 16:32:00,33.0,27.0,-100.00,North,353,4.0,9.0,78,0.00,,,0.27,172.000000,,2013-02-24 16:32:00,
2013-02-24 16:42:00,33.0,27.0,-100.00,North,353,4.0,9.0,78,0.00,,,0.27,172.000000,,2013-02-24 16:42:00,
2013-02-24 16:52:00,33.0,27.0,-100.00,North,353,4.0,9.0,78,0.00,,,0.27,172.000000,,2013-02-24 16:52:00,
2013-02-24 17:01:00,33.0,27.0,-100.00,North,353,4.0,9.0,78,0.00,,,0.27,172.000000,,2013-02-24 17:01:00,
2013-02-24 17:22:00,34.0,26.0,-100.00,North,350,6.0,13.0,72,0.01,,,0.28,284.000000,,2013-02-24 17:22:00,
2013-02-24 17:32:00,34.0,26.0,-100.00,North,350,6.0,13.0,72,0.01,,,0.28,284.000000,,2013-02-24 17:32:00,
2013-02-24 17:42:00,34.0,26.0,-100.00,North,350,6.0,13.0,72,0.01,,,0.28,284.000000,,2013-02-24 17:42:00,
2013-02-24 17:53:00,34.0,26.0,-100.00,North,350,6.0,13.0,72,0.01,,,0.28,284.000000,,2013-02-24 17:53:00,
2013-02-24 18:01:00,34.0,26.0,-100.00,North,350,6.0,13.0,72,0.01,,,0.28,284.000000,,2013-02-24 18:01:00,
2013-02-24 18:22:00,36.0,26.0,-100.00,North,353,5.0,12.0,66,0.02,,,0.16,418.000000,,2013-02-24 18:22:00,
2013-02-24 18:32:00,36.0,26.0,-100.00,North,353,5.0,12.0,66,0.02,,,0.16,418.000000,,2013-02-24 18:32:00,
2013-02-24 18:42:00,36.0,26.0,-100.00,North,353,5.0,12.0,66,0.02,,,0.16,418.000000,,2013-02-24 18:42:00,
2013-02-24 18:52:00,36.0,26.0,-100.00,North,353,5.0,12.0,66,0.02,,,0.16,418.000000,,2013-02-24 18:52:00,
2013-02-24 19:01:00,36.0,26.0,-100.00,North,353,5.0,12.0,66,0.02,,,0.16,418.000000,,2013-02-24 19:01:00,
2013-02-24 19:22:00,37.0,24.0,-100.00,North,350,5.0,13.0,59,0.01,,,0.10,560.000000,,2013-02-24 19:22:00,
2013-02-24 19:32:00,37.0,24.0,-100.00,North,350,5.0,13.0,59,0.01,,,0.10,560.000000,,2013-02-24 19:32:00,
2013-02-24 19:42:00,37.0,24.0,-100.00,North,350,5.0,13.0,59,0.01,,,0.10,560.000000,,2013-02-24 19:42:00,
2013-02-24 19:52:00,37.0,24.0,-100.00,North,350,5.0,13.0,59,0.01,,,0.10,560.000000,,2013-02-24 19:52:00,
2013-02-24 20:02:00,37.0,24.0,-100.00,North,350,5.0,13.0,59,0.01,,,0.10,560.000000,,2013-02-24 20:02:00,
2013-02-24 20:32:00,36.0,22.0,-100.00,North,3,3.0,9.0,57,0.01,,,0.08,342.000000,,2013-02-24 20:32:00,
2013-02-24 20:42:00,36.0,22.0,-100.00,North,3,3.0,9.0,57,0.01,,,0.08,342.000000,,2013-02-24 20:42:00,
2013-02-24 20:52:00,36.0,22.0,-100.00,North,3,3.0,9.0,57,0.01,,,0.08,342.000000,,2013-02-24 20:52:00,
2013-02-24 21:01:00,36.0,22.0,-100.00,North,3,3.0,9.0,57,0.01,,,0.08,342.000000,,2013-02-24 21:01:00,
2013-02-24 21:32:00,35.0,22.0,-100.00,North,6,5.0,10.0,59,0.00,,,0.06,223.000000,,2013-02-24 21:32:00,
2013-02-24 21:42:00,35.0,22.0,-100.00,North,6,5.0,10.0,59,0.00,,,0.06,223.000000,,2013-02-24 21:42:00,
2013-02-24 21:52:00,35.0,22.0,-100.00,North,6,5.0,10.0,59,0.00,,,0.06,223.000000,,2013-02-24 21:52:00,
2013-02-24 22:01:00,35.0,22.0,-100.00,North,6,5.0,10.0,59,0.00,,,0.06,223.000000,,2013-02-24 22:01:00,
2013-02-24 22:32:00,33.0,22.0,-100.00,NE,37,6.0,9.0,64,0.00,,,0.06,118.000000,,2013-02-24 22:32:00,
2013-02-24 22:42:00,33.0,22.0,-100.00,NE,37,6.0,9.0,64,0.00,,,0.06,118.000000,,2013-02-24 22:42:00,
2013-02-24 22:52:00,33.0,22.0,-100.00,NE,37,6.0,9.0,64,0.00,,,0.06,118.000000,,2013-02-24 22:52:00,
2013-02-24 23:02:00,33.0,22.0,-100.00,NE,37,6.0,9.0,64,0.00,,,0.06,118.000000,,2013-02-24 23:02:00,
2013-02-24 23:22:00,32.0,22.0,-100.00,NE,56,2.0,9.0,67,0.00,,,0.05,35.000000,,2013-02-24 23:22:00,
2013-02-24 23:32:00,32.0,22.0,-100.00,NE,56,2.0,9.0,67,0.00,,,0.05,35.000000,,2013-02-24 23:32:00,
2013-02-24 23:42:00,32.0,22.0,-100.00,NE,56,2.0,9.0,67,0.00,,,0.05,35.000000,,2013-02-24 23:42:00,
2013-02-24 23:52:00,32.0,22.0,-100.00,NE,56,2.0,9.0,67,0.00,,,0.05,35.000000,,2013-02-24 23:52:00,